Time;durP1;ratioP1;P1;durP2;ratioP2;P2;SDS_P1;SDS_P2;PMS_P1;PMS_P2;Temp;Humidity;BMP_temperature;BMP_pressure;BME280_temperature;BME280_humidity;BME280_pressure;Samples;Min_cycle;Max_cycle;Signal;HPM_P1;HPM_P2
2022/05/25 00:01:16;;;;;;;17.75;15.85;;;17.20;99.90;;;;;;4592639;19;20015;-24
2022/05/25 00:02:47;;;;;;;18.13;16.40;;;17.10;99.90;;;;;;4591957;19;20491;-24
2022/05/25 00:04:18;;;;;;;18.42;16.05;;;17.20;99.90;;;;;;4592137;19;20007;-24
2022/05/25 00:05:50;;;;;;;16.17;14.57;;;17.10;99.90;;;;;;4591496;19;20010;-24
2022/05/25 00:07:21;;;;;;;18.13;15.63;;;17.20;99.90;;;;;;4591943;19;20007;-23
2022/05/25 00:08:52;;;;;;;20.40;18.30;;;17.10;99.90;;;;;;4591189;19;20007;-24
2022/05/25 00:10:24;;;;;;;18.25;16.38;;;17.10;99.90;;;;;;4590712;19;20370;-24
2022/05/25 00:11:55;;;;;;;16.73;14.98;;;17.10;99.90;;;;;;4592562;19;20416;-24
2022/05/25 00:13:26;;;;;;;16.58;14.88;;;17.10;99.90;;;;;;4592704;19;20014;-24
2022/05/25 00:14:57;;;;;;;15.68;14.13;;;17.10;99.90;;;;;;4590893;19;20014;-24
2022/05/25 00:16:28;;;;;;;14.93;13.38;;;17.10;99.90;;;;;;4591117;19;20035;-24
2022/05/25 00:17:59;;;;;;;15.23;13.73;;;17.10;99.90;;;;;;4591373;19;20015;-24
2022/05/25 00:21:21;;;;;;;14.70;13.30;;;17.10;99.90;;;;;;4589668;19;20100;-24
2022/05/25 00:22:54;;;;;;;15.98;14.00;;;17.10;99.90;;;;;;4589677;19;20445;-24
2022/05/25 00:24:24;;;;;;;14.55;13.20;;;17.10;99.90;;;;;;4589817;19;20031;-23
2022/05/25 00:25:56;;;;;;;15.05;13.55;;;17.10;99.90;;;;;;4590247;19;20478;-24
2022/05/25 00:27:27;;;;;;;15.73;14.27;;;17.10;99.90;;;;;;4589695;19;20021;-24
2022/05/25 00:28:58;;;;;;;16.80;15.10;;;17.10;99.90;;;;;;4589604;19;20010;-24
2022/05/25 00:30:30;;;;;;;17.58;15.65;;;17.10;99.90;;;;;;4588844;19;19998;-24
2022/05/25 00:32:01;;;;;;;17.35;15.60;;;17.10;99.90;;;;;;4590144;19;20083;-24
2022/05/25 00:33:32;;;;;;;19.70;17.35;;;17.10;99.90;;;;;;4589403;19;20010;-24
2022/05/25 00:35:04;;;;;;;18.05;16.17;;;17.10;99.90;;;;;;4589582;19;20435;-24
2022/05/25 00:36:36;;;;;;;20.65;17.48;;;17.10;99.90;;;;;;4589417;19;20080;-24
2022/05/25 00:38:07;;;;;;;22.13;18.45;;;17.10;99.90;;;;;;4589257;19;20027;-24
2022/05/25 00:39:38;;;;;;;18.95;16.52;;;17.10;99.90;;;;;;4589466;19;20014;-24
2022/05/25 00:41:09;;;;;;;17.55;15.85;;;17.10;99.90;;;;;;4589385;19;20010;-24
2022/05/25 00:42:40;;;;;;;16.55;14.95;;;17.10;99.90;;;;;;4589844;19;20369;-24
2022/05/25 00:44:12;;;;;;;16.48;14.88;;;17.10;99.90;;;;;;4589376;19;20114;-24
2022/05/25 00:45:48;;;;;;;17.38;15.68;;;17.10;99.90;;;;;;4589649;19;20006;-24
2022/05/25 00:47:22;;;;;;;18.30;16.33;;;17.10;99.90;;;;;;4589708;19;20013;-23
2022/05/25 00:49:02;;;;;;;19.85;17.85;;;17.10;99.90;;;;;;4589219;19;20007;-24
2022/05/25 00:51:12;;;;;;;19.13;17.13;;;17.10;99.90;;;;;;4587997;19;20086;-23
2022/05/25 00:52:24;;;;;;;18.75;16.95;;;17.10;99.90;;;;;;4588853;19;20017;-24
2022/05/25 00:53:58;;;;;;;18.38;16.58;;;17.10;99.90;;;;;;4589436;19;20015;-24
2022/05/25 00:55:29;;;;;;;19.33;17.35;;;17.10;99.90;;;;;;4589258;19;20010;-24
2022/05/25 00:57:05;;;;;;;19.20;17.25;;;17.10;99.90;;;;;;4588387;19;20014;-24
2022/05/25 00:58:36;;;;;;;19.27;17.23;;;17.10;99.90;;;;;;4589467;19;20018;-23
2022/05/25 01:00:12;;;;;;;19.77;17.77;;;17.10;99.90;;;;;;4590318;19;20017;-24
2022/05/25 01:01:43;;;;;;;21.17;18.98;;;17.10;99.90;;;;;;4590677;19;20334;-24
2022/05/25 01:03:15;;;;;;;21.30;18.05;;;17.10;99.90;;;;;;4591731;19;20010;-24
2022/05/25 01:04:47;;;;;;;19.90;17.80;;;17.00;99.90;;;;;;4591107;19;20021;-24
2022/05/25 01:06:25;;;;;;;18.85;17.02;;;17.10;99.90;;;;;;4591177;19;20478;-24
2022/05/25 01:08:16;;;;;;;19.13;17.25;;;17.00;99.90;;;;;;4589887;19;20014;-24
2022/05/25 01:09:56;;;;;;;19.27;17.27;;;17.00;99.90;;;;;;4590179;19;20346;-24
2022/05/25 01:11:48;;;;;;;19.38;17.55;;;17.00;99.90;;;;;;4589891;19;20014;-24
2022/05/25 01:13:40;;;;;;;18.02;16.23;;;17.00;99.90;;;;;;4589860;19;20010;-24
2022/05/25 01:15:38;;;;;;;20.65;18.70;;;17.00;99.90;;;;;;4591043;19;20017;-23
2022/05/25 01:17:25;;;;;;;20.15;18.20;;;17.00;99.90;;;;;;4590869;19;20010;-23
2022/05/25 01:19:01;;;;;;;20.17;18.15;;;17.00;99.90;;;;;;4590684;19;20018;-23
2022/05/25 01:20:40;;;;;;;21.50;19.50;;;17.00;99.90;;;;;;4589893;19;20014;-24
2022/05/25 01:22:29;;;;;;;21.52;19.52;;;17.00;99.90;;;;;;4589676;19;20038;-23
2022/05/25 01:24:14;;;;;;;22.88;20.77;;;17.10;99.90;;;;;;4591290;19;20456;-24
2022/05/25 01:26:10;;;;;;;20.77;18.73;;;17.10;99.90;;;;;;4589644;19;20031;-23
2022/05/25 01:27:44;;;;;;;22.13;20.05;;;17.10;99.90;;;;;;4589406;19;20021;-24
2022/05/25 01:29:22;;;;;;;21.45;19.25;;;17.10;99.90;;;;;;4590456;19;20007;-23
2022/05/25 01:30:53;;;;;;;21.65;19.48;;;17.20;99.90;;;;;;4590287;19;20002;-24
2022/05/25 01:32:32;;;;;;;22.27;20.10;;;17.20;99.90;;;;;;4589652;19;20027;-24
2022/05/25 01:34:10;;;;;;;20.77;18.77;;;17.20;99.90;;;;;;4589441;19;20027;-24
2022/05/25 01:36:03;;;;;;;20.70;18.70;;;17.20;99.90;;;;;;4589451;19;20041;-24
2022/05/25 01:37:57;;;;;;;21.50;19.30;;;17.20;99.90;;;;;;4589696;19;20465;-24
2022/05/25 01:39:30;;;;;;;22.67;20.33;;;17.20;99.90;;;;;;4589952;19;20011;-24
2022/05/25 01:41:07;;;;;;;19.35;17.55;;;17.20;99.90;;;;;;4589412;19;20039;-23
2022/05/25 01:42:51;;;;;;;20.85;18.85;;;17.20;99.90;;;;;;4589929;19;20070;-24
2022/05/25 01:44:24;;;;;;;19.55;17.63;;;17.20;99.90;;;;;;4589463;19;20027;-24
2022/05/25 01:45:58;;;;;;;19.75;17.73;;;17.20;99.90;;;;;;4590025;19;20015;-24
2022/05/25 01:47:29;;;;;;;18.70;16.95;;;17.20;99.90;;;;;;4589145;19;20479;-24
2022/05/25 01:49:08;;;;;;;18.90;16.90;;;17.20;99.90;;;;;;4589217;19;20017;-24
2022/05/25 01:50:48;;;;;;;18.25;16.38;;;17.20;99.90;;;;;;4588190;19;20006;-24
2022/05/25 01:52:21;;;;;;;19.63;17.70;;;17.20;99.90;;;;;;4589156;19;20049;-24
2022/05/25 01:53:55;;;;;;;19.10;17.20;;;17.20;99.90;;;;;;4589319;19;20003;-24
2022/05/25 01:55:28;;;;;;;18.75;17.00;;;17.20;99.90;;;;;;4590578;19;20069;-24
2022/05/25 01:57:03;;;;;;;18.08;16.30;;;17.20;99.90;;;;;;4587898;19;20039;-24
2022/05/25 01:58:37;;;;;;;18.23;16.38;;;17.10;99.90;;;;;;4589101;19;20010;-24
2022/05/25 02:00:08;;;;;;;17.42;15.63;;;17.10;99.90;;;;;;4588628;19;20042;-24
2022/05/25 02:01:48;;;;;;;;;;;17.10;99.90;;;;;;4590952;19;20019;-24
2022/05/25 02:05:13;;;;;;;17.65;15.68;;;17.00;99.90;;;;;;4590218;19;20010;-24
2022/05/25 02:06:57;;;;;;;16.92;15.20;;;17.10;99.90;;;;;;4588750;19;20081;-24
2022/05/25 02:08:30;;;;;;;17.38;14.80;;;17.00;99.90;;;;;;4589884;19;20010;-24
2022/05/25 02:10:18;;;;;;;17.48;15.75;;;17.00;99.90;;;;;;4588271;19;20014;-24
2022/05/25 02:12:16;;;;;;;16.77;14.70;;;17.00;99.90;;;;;;4588642;19;20478;-23
2022/05/25 02:14:01;;;;;;;16.13;14.43;;;17.00;99.90;;;;;;4587437;19;20434;-24
2022/05/25 02:15:58;;;;;;;17.25;15.10;;;17.00;99.90;;;;;;4587718;19;20137;-23
2022/05/25 02:17:36;;;;;;;17.65;15.93;;;17.00;99.90;;;;;;4587465;19;20524;-24
2022/05/25 02:19:23;;;;;;;16.73;14.93;;;17.00;99.90;;;;;;4587675;19;20013;-24
2022/05/25 02:20:54;;;;;;;17.05;15.13;;;17.10;99.90;;;;;;4587766;19;20013;-24
2022/05/25 02:22:36;;;;;;;18.23;15.65;;;17.00;99.90;;;;;;4587941;19;20361;-24
2022/05/25 02:24:11;;;;;;;17.20;14.60;;;17.00;99.90;;;;;;4587357;19;20346;-24
2022/05/25 02:26:04;;;;;;;17.25;15.40;;;17.00;99.90;;;;;;4587477;19;20548;-24
2022/05/25 02:27:47;;;;;;;18.08;14.95;;;17.00;99.90;;;;;;4586989;19;20409;-24
2022/05/25 02:29:28;;;;;;;17.77;14.70;;;16.90;99.90;;;;;;4587176;19;20014;-23
2022/05/25 02:30:59;;;;;;;15.93;14.05;;;16.90;99.90;;;;;;4587567;19;20012;-23
2022/05/25 02:32:37;;;;;;;16.20;14.57;;;16.90;99.90;;;;;;4586978;19;20022;-24
2022/05/25 02:34:09;;;;;;;15.30;13.75;;;16.90;99.90;;;;;;4587289;19;20070;-24
2022/05/25 02:35:41;;;;;;;15.20;13.60;;;16.90;99.90;;;;;;4587186;19;20014;-23
2022/05/25 02:37:12;;;;;;;14.43;13.05;;;16.90;99.90;;;;;;4587672;19;20018;-24
2022/05/25 02:38:43;;;;;;;15.77;13.60;;;16.90;99.90;;;;;;4587131;19;20014;-24
2022/05/25 02:40:14;;;;;;;15.63;13.95;;;16.90;99.90;;;;;;4587138;19;20414;-24
2022/05/25 02:41:51;;;;;;;14.98;13.45;;;16.90;99.90;;;;;;4587475;19;20070;-24
2022/05/25 02:43:22;;;;;;;15.82;13.32;;;16.90;99.90;;;;;;4592182;19;20028;-24
2022/05/25 02:44:53;;;;;;;14.27;12.65;;;16.90;99.90;;;;;;4591522;19;20015;-24
2022/05/25 02:46:24;;;;;;;14.00;12.40;;;16.90;99.90;;;;;;4591692;19;20007;-23
2022/05/25 02:47:55;;;;;;;16.10;12.70;;;16.90;99.90;;;;;;4591631;19;20112;-23
2022/05/25 02:49:26;;;;;;;14.18;12.13;;;16.90;99.90;;;;;;4591603;19;20478;-23
2022/05/25 02:50:57;;;;;;;13.55;12.13;;;16.90;99.90;;;;;;4591643;19;20007;-24
2022/05/25 02:52:28;;;;;;;13.65;12.20;;;16.90;99.90;;;;;;4591662;19;20007;-23
2022/05/25 02:54:00;;;;;;;14.25;11.75;;;16.90;99.90;;;;;;4591724;19;20014;-24
2022/05/25 02:55:31;;;;;;;12.73;11.35;;;16.90;99.90;;;;;;4591411;19;20046;-24
2022/05/25 02:57:03;;;;;;;13.90;11.73;;;16.90;99.90;;;;;;4589844;19;20007;-24
2022/05/25 02:58:34;;;;;;;12.32;10.95;;;17.00;99.90;;;;;;4591495;19;20006;-24
2022/05/25 03:00:07;;;;;;;12.23;10.73;;;17.00;99.90;;;;;;4591841;19;19999;-24
2022/05/25 03:01:39;;;;;;;12.82;10.82;;;16.90;99.90;;;;;;4591160;19;20044;-24
2022/05/25 03:03:12;;;;;;;11.77;10.57;;;16.90;99.90;;;;;;4591419;19;20112;-24
2022/05/25 03:04:43;;;;;;;12.05;10.75;;;16.90;99.90;;;;;;4591754;19;20351;-24
2022/05/25 03:06:14;;;;;;;11.25;9.90;;;17.00;99.90;;;;;;4594506;19;20082;-24
2022/05/25 03:07:45;;;;;;;11.73;9.93;;;16.90;99.90;;;;;;4593518;19;20010;-24
2022/05/25 03:09:16;;;;;;;11.88;10.18;;;16.90;99.90;;;;;;4593905;19;20014;-24
2022/05/25 03:10:47;;;;;;;11.35;9.90;;;16.90;99.90;;;;;;4592311;19;20010;-24
2022/05/25 03:12:18;;;;;;;11.23;9.77;;;16.90;99.90;;;;;;4594165;19;20014;-24
2022/05/25 03:13:50;;;;;;;11.25;8.98;;;16.80;99.90;;;;;;4592327;19;20014;-24
2022/05/25 03:15:21;;;;;;;11.43;10.23;;;16.90;99.90;;;;;;4593023;19;20021;-24
2022/05/25 03:16:52;;;;;;;11.50;9.90;;;16.90;99.90;;;;;;4593711;19;20363;-24
2022/05/25 03:18:24;;;;;;;10.48;8.88;;;16.90;99.90;;;;;;4591934;19;20015;-24
2022/05/25 03:19:55;;;;;;;11.02;9.10;;;16.90;99.90;;;;;;4593531;19;20028;-24
2022/05/25 03:21:26;;;;;;;;;;;16.90;99.90;;;;;;4593642;19;20014;-24
2022/05/25 03:22:57;;;;;;;10.73;9.63;;;16.90;99.90;;;;;;4592809;19;19936;-23
2022/05/25 03:24:28;;;;;;;12.80;9.10;;;16.90;99.90;;;;;;4593191;19;20010;-23
2022/05/25 03:25:59;;;;;;;12.13;8.98;;;16.90;99.90;;;;;;4593707;19;20024;-23
2022/05/25 03:27:30;;;;;;;8.55;7.70;;;16.90;99.90;;;;;;4593305;19;20015;-24
2022/05/25 03:29:01;;;;;;;11.70;8.80;;;16.90;99.90;;;;;;4590632;19;20523;-24
2022/05/25 03:30:33;;;;;;;9.73;8.73;;;16.90;99.90;;;;;;4591317;19;20015;-24
2022/05/25 03:32:04;;;;;;;11.18;9.70;;;17.00;99.90;;;;;;4593550;19;20011;-23
2022/05/25 03:33:35;;;;;;;12.18;9.32;;;17.00;99.90;;;;;;4593702;19;20062;-24
2022/05/25 03:35:06;;;;;;;10.07;9.02;;;16.90;99.90;;;;;;4592764;19;20017;-23
2022/05/25 03:36:38;;;;;;;10.38;8.80;;;16.90;99.90;;;;;;4591854;19;20496;-23
2022/05/25 03:38:10;;;;;;;9.65;8.65;;;16.90;99.90;;;;;;4592381;19;20014;-24
2022/05/25 03:39:41;;;;;;;8.75;7.82;;;16.90;99.90;;;;;;4593125;19;20352;-24
2022/05/25 03:41:12;;;;;;;9.50;7.93;;;16.90;99.90;;;;;;4592750;19;20022;-24
2022/05/25 03:42:44;;;;;;;12.50;8.75;;;16.90;99.90;;;;;;4593133;19;20034;-23
2022/05/25 03:44:15;;;;;;;9.75;8.65;;;16.90;99.90;;;;;;4591716;19;20410;-24
2022/05/25 03:45:46;;;;;;;9.82;8.20;;;16.90;99.90;;;;;;4592915;19;20017;-24
2022/05/25 03:47:17;;;;;;;9.10;7.93;;;16.90;99.90;;;;;;4592860;19;20028;-24
2022/05/25 03:48:49;;;;;;;9.50;8.45;;;17.00;99.90;;;;;;4593129;19;20015;-24
2022/05/25 03:50:20;;;;;;;8.63;7.47;;;17.00;99.90;;;;;;4592344;19;20459;-24
2022/05/25 03:51:51;;;;;;;10.05;7.88;;;17.00;99.90;;;;;;4591591;19;20127;-24
2022/05/25 03:53:21;;;;;;;9.32;7.97;;;17.00;99.90;;;;;;4590814;19;20484;-24
2022/05/25 03:54:53;;;;;;;9.57;8.20;;;17.00;99.90;;;;;;4592631;19;20022;-24
2022/05/25 03:56:25;;;;;;;10.30;8.00;;;17.00;99.90;;;;;;4592189;19;20021;-23
2022/05/25 03:57:57;;;;;;;8.95;7.75;;;17.00;99.90;;;;;;4592403;19;20010;-24
2022/05/25 03:59:28;;;;;;;10.35;8.25;;;17.00;99.90;;;;;;4591468;19;20089;-24
2022/05/25 04:00:59;;;;;;;9.82;8.68;;;17.00;99.90;;;;;;4592059;19;20013;-24
2022/05/25 04:02:30;;;;;;;8.48;7.57;;;17.00;99.90;;;;;;4593346;19;20331;-24
2022/05/25 04:04:01;;;;;;;9.13;8.18;;;17.00;99.90;;;;;;4592451;19;20021;-24
2022/05/25 04:05:32;;;;;;;10.02;8.05;;;17.00;99.90;;;;;;4591762;19;20022;-23
2022/05/25 04:07:04;;;;;;;9.25;8.27;;;17.00;99.90;;;;;;4592414;19;20460;-24
2022/05/25 04:08:35;;;;;;;8.98;7.97;;;17.00;99.90;;;;;;4592258;19;20010;-24
2022/05/25 04:10:07;;;;;;;10.65;7.90;;;17.00;99.90;;;;;;4592017;19;20371;-24
2022/05/25 04:11:38;;;;;;;9.25;8.25;;;17.00;99.90;;;;;;4592603;19;20011;-24
2022/05/25 04:13:09;;;;;;;9.23;7.75;;;17.00;99.90;;;;;;4591377;19;20010;-24
2022/05/25 04:14:40;;;;;;;9.15;8.20;;;17.00;99.90;;;;;;4590849;19;20383;-24
2022/05/25 04:16:11;;;;;;;8.93;8.02;;;17.10;99.90;;;;;;4591979;19;20011;-24
2022/05/25 04:17:42;;;;;;;10.32;7.57;;;17.10;99.90;;;;;;4592055;19;20017;-24
2022/05/25 04:19:13;;;;;;;9.68;8.00;;;17.00;99.90;;;;;;4592472;19;20030;-24
2022/05/25 04:20:44;;;;;;;9.25;8.25;;;17.00;99.90;;;;;;4592129;19;20011;-24
2022/05/25 04:22:16;;;;;;;8.98;8.05;;;17.10;99.90;;;;;;4592306;19;20619;-24
2022/05/25 04:23:46;;;;;;;9.95;7.75;;;17.10;99.90;;;;;;4592774;19;20007;-25
2022/05/25 04:25:20;;;;;;;10.73;7.97;;;17.00;99.90;;;;;;4591333;19;20070;-24
2022/05/25 04:26:51;;;;;;;8.65;7.75;;;16.90;99.90;;;;;;4591601;19;20018;-23
2022/05/25 04:28:22;;;;;;;9.00;7.40;;;16.90;99.90;;;;;;4590775;19;20018;-24
2022/05/25 04:29:52;;;;;;;8.68;7.35;;;16.90;99.90;;;;;;4591276;19;20027;-24
2022/05/25 04:31:24;;;;;;;8.20;7.18;;;16.90;99.90;;;;;;4591965;19;20471;-24
2022/05/25 04:32:55;;;;;;;8.05;7.25;;;16.90;99.90;;;;;;4591914;19;20006;-24
2022/05/25 04:34:26;;;;;;;8.00;6.78;;;16.90;99.90;;;;;;4590563;19;20046;-24
2022/05/25 04:35:57;;;;;;;8.77;6.60;;;16.80;99.90;;;;;;4591942;19;20030;-24
2022/05/25 04:39:18;;;;;;;9.27;7.43;;;16.80;99.90;;;;;;4591537;19;20014;-24
2022/05/25 04:40:49;;;;;;;8.07;7.20;;;16.80;99.90;;;;;;4592134;19;20006;-23
2022/05/25 04:42:19;;;;;;;8.73;7.43;;;16.80;99.90;;;;;;4592514;19;20062;-24
2022/05/25 04:43:51;;;;;;;9.57;7.38;;;16.80;99.90;;;;;;4591356;19;20074;-24
2022/05/25 04:45:22;;;;;;;8.38;7.45;;;16.90;99.90;;;;;;4591608;19;20051;-24
2022/05/25 04:46:53;;;;;;;;;;;16.90;99.90;;;;;;4592606;19;20018;-23
2022/05/25 04:48:24;;;;;;;8.32;7.22;;;16.90;99.90;;;;;;4591727;19;19915;-24
2022/05/25 04:49:56;;;;;;;9.52;7.13;;;17.00;99.90;;;;;;4591012;19;20092;-24
2022/05/25 04:51:28;;;;;;;7.65;6.82;;;16.90;99.90;;;;;;4590225;19;20035;-23
2022/05/25 04:52:59;;;;;;;10.75;7.57;;;17.00;99.90;;;;;;4591390;19;20010;-23
2022/05/25 04:54:30;;;;;;;9.73;7.38;;;17.00;99.90;;;;;;4592119;19;20014;-24
2022/05/25 04:57:51;;;;;;;8.48;6.90;;;17.00;99.90;;;;;;4591406;19;20038;-23
2022/05/25 04:59:22;;;;;;;7.60;6.60;;;17.00;99.90;;;;;;4591544;19;20006;-24
2022/05/25 05:00:53;;;;;;;8.77;6.57;;;16.90;99.90;;;;;;4591957;19;20484;-24
2022/05/25 05:02:28;;;;;;;7.47;6.78;;;16.80;99.90;;;;;;4590139;19;20011;-24
2022/05/25 05:03:59;;;;;;;7.82;6.75;;;16.80;99.90;;;;;;4590855;19;20345;-23
2022/05/25 05:05:30;;;;;;;7.25;6.53;;;16.80;99.90;;;;;;4589379;19;20017;-24
2022/05/25 05:07:01;;;;;;;8.77;6.68;;;16.70;99.90;;;;;;4591787;19;20481;-23
2022/05/25 05:08:33;;;;;;;7.65;6.85;;;16.70;99.90;;;;;;4591397;19;20465;-24
2022/05/25 05:10:04;;;;;;;9.10;6.55;;;16.70;99.90;;;;;;4592329;19;20405;-23
2022/05/25 05:11:36;;;;;;;7.63;6.68;;;16.70;99.90;;;;;;4591979;19;20027;-24
2022/05/25 05:13:08;;;;;;;7.15;6.45;;;16.70;99.90;;;;;;4592599;19;20011;-24
2022/05/25 05:14:39;;;;;;;7.93;7.13;;;16.70;99.90;;;;;;4593200;19;20031;-23
2022/05/25 05:16:13;;;;;;;7.57;6.78;;;16.70;99.90;;;;;;4592879;19;20018;-23
2022/05/25 05:17:44;;;;;;;7.35;6.57;;;16.60;99.90;;;;;;4590964;19;20010;-24
2022/05/25 05:19:15;;;;;;;7.85;6.68;;;16.70;99.90;;;;;;4590773;19;20136;-24
2022/05/25 05:20:46;;;;;;;8.27;7.38;;;16.80;99.90;;;;;;4592376;19;20103;-24
2022/05/25 05:22:17;;;;;;;7.50;6.80;;;16.90;99.90;;;;;;4592897;19;20038;-24
2022/05/25 05:23:49;;;;;;;7.75;6.40;;;16.90;99.90;;;;;;4591097;19;20015;-24
2022/05/25 05:25:23;;;;;;;10.02;7.18;;;16.90;99.90;;;;;;4590692;19;20011;-23
2022/05/25 05:26:54;;;;;;;7.18;6.47;;;16.90;99.90;;;;;;4591020;19;20038;-23
2022/05/25 05:28:29;;;;;;;8.05;6.32;;;16.90;99.90;;;;;;4591237;19;20002;-24
2022/05/25 05:30:03;;;;;;;8.57;7.47;;;16.90;99.90;;;;;;4590174;19;20422;-24
2022/05/25 05:31:34;;;;;;;9.63;7.13;;;16.80;99.90;;;;;;4589396;19;20014;-24
2022/05/25 05:33:05;;;;;;;8.05;6.95;;;16.70;99.90;;;;;;4590311;19;20086;-24
2022/05/25 05:34:37;;;;;;;8.95;7.13;;;16.70;99.90;;;;;;4588252;19;20010;-24
2022/05/25 05:36:09;;;;;;;;;;;16.70;99.90;;;;;;4589751;19;20019;-24
2022/05/25 05:37:46;;;;;;;8.05;6.63;;;16.70;99.90;;;;;;4589943;19;20008;-24
2022/05/25 05:39:18;;;;;;;8.23;7.43;;;16.60;99.90;;;;;;4588795;19;20021;-24
2022/05/25 05:40:49;;;;;;;;;;;16.70;99.90;;;;;;4591025;19;20038;-23
2022/05/25 05:42:20;;;;;;;7.10;6.32;;;16.70;99.90;;;;;;4590028;19;19914;-24
2022/05/25 05:43:52;;;;;;;7.63;6.78;;;16.70;99.90;;;;;;4589035;19;20376;-24
2022/05/25 05:45:25;;;;;;;7.53;6.43;;;16.70;99.90;;;;;;4588864;19;20010;-22
2022/05/25 05:46:56;;;;;;;7.00;6.30;;;16.70;99.90;;;;;;4590019;19;20049;-23
2022/05/25 05:48:28;;;;;;;7.70;6.90;;;16.70;99.90;;;;;;4587541;19;20028;-24
2022/05/25 05:49:59;;;;;;;7.25;6.55;;;16.60;99.90;;;;;;4588180;19;20497;-24
2022/05/25 05:51:30;;;;;;;6.88;6.18;;;16.70;99.90;;;;;;4586867;19;20074;-24
2022/05/25 05:53:04;;;;;;;7.35;6.50;;;16.70;99.90;;;;;;4586819;19;20456;-23
2022/05/25 05:54:35;;;;;;;7.45;6.20;;;16.80;99.90;;;;;;4588490;19;20034;-24
2022/05/25 05:56:06;;;;;;;7.43;6.50;;;16.80;99.90;;;;;;4589043;19;20010;-23
2022/05/25 05:57:37;;;;;;;8.02;6.25;;;16.80;99.90;;;;;;4588978;19;20006;-23
2022/05/25 05:59:08;;;;;;;7.72;6.93;;;16.80;99.90;;;;;;4588286;19;20003;-22
2022/05/25 06:00:39;;;;;;;8.65;6.55;;;16.80;99.90;;;;;;4587066;19;20487;-22
2022/05/25 06:02:10;;;;;;;7.07;6.35;;;16.70;99.90;;;;;;4588566;19;20045;-24
2022/05/25 06:03:41;;;;;;;7.38;6.60;;;16.80;99.90;;;;;;4589835;19;20069;-22
2022/05/25 06:05:12;;;;;;;6.75;6.05;;;16.90;99.90;;;;;;4589548;19;20017;-23
2022/05/25 06:06:43;;;;;;;6.68;5.97;;;17.00;99.90;;;;;;4589122;19;20019;-23
2022/05/25 06:08:19;;;;;;;7.22;6.00;;;17.00;99.90;;;;;;4588236;19;20028;-24
2022/05/25 06:09:50;;;;;;;7.20;5.78;;;17.10;99.90;;;;;;4589072;19;20044;-23
2022/05/25 06:11:21;;;;;;;7.97;5.95;;;17.20;99.90;;;;;;4587970;19;20010;-23
2022/05/25 06:12:53;;;;;;;6.25;5.38;;;17.20;99.90;;;;;;4588325;19;20011;-24
2022/05/25 06:14:24;;;;;;;8.00;5.93;;;17.20;99.90;;;;;;4587898;19;20022;-24
2022/05/25 06:19:37;;;;;;;7.13;5.72;;;17.20;99.90;;;;;;4593981;19;20014;-23
2022/05/25 06:21:09;;;;;;;6.20;5.60;;;17.20;99.90;;;;;;4592675;19;20010;-24
2022/05/25 06:22:39;;;;;;;;;;;17.20;99.90;;;;;;4594761;19;20002;-24
2022/05/25 06:24:10;;;;;;;5.70;5.07;;;17.20;99.90;;;;;;4594411;19;19931;-24
2022/05/25 06:25:41;;;;;;;5.25;4.75;;;17.30;99.90;;;;;;4592961;19;20353;-23
2022/05/25 06:27:13;;;;;;;5.45;4.95;;;17.40;99.90;;;;;;4593219;19;20022;-24
2022/05/25 06:28:44;;;;;;;5.93;5.32;;;17.40;99.90;;;;;;4594191;19;20017;-24
2022/05/25 06:30:15;;;;;;;5.32;4.47;;;17.40;99.90;;;;;;4592027;19;20006;-24
2022/05/25 06:31:47;;;;;;;6.28;4.90;;;17.60;99.90;;;;;;4593617;19;20031;-24
2022/05/25 06:33:18;;;;;;;5.43;4.93;;;17.60;99.90;;;;;;4592656;19;20484;-24
2022/05/25 06:34:49;;;;;;;5.75;4.82;;;17.60;99.90;;;;;;4593669;19;20011;-24
2022/05/25 06:36:28;;;;;;;7.20;4.90;;;17.60;99.90;;;;;;4593575;19;20472;-24
2022/05/25 06:37:59;;;;;;;5.28;4.78;;;17.60;99.90;;;;;;4592428;19;20014;-22
2022/05/25 06:39:33;;;;;;;;;;;17.60;99.90;;;;;;4594505;19;20031;-23
2022/05/25 06:41:04;;;;;;;;;;;17.60;99.90;;;;;;4594784;19;19915;-24
2022/05/25 06:42:37;;;;;;;;;;;17.60;99.90;;;;;;4594167;19;19939;-24
2022/05/25 06:44:07;;;;;;;;;;;17.70;99.90;;;;;;4594894;19;19919;-23
2022/05/25 06:45:40;;;;;;;;;;;17.80;99.90;;;;;;4596600;19;20285;-24
2022/05/25 06:47:17;;;;;;;;;;;17.90;99.90;;;;;;4595325;19;19922;-25
2022/05/25 06:48:48;;;;;;;;;;;18.00;99.90;;;;;;4593150;19;19926;-24
2022/05/25 06:50:19;;;;;;;4.60;3.90;;;18.10;99.90;;;;;;4591877;19;19929;-24
2022/05/25 06:51:50;;;;;;;4.80;4.40;;;18.20;99.90;;;;;;4593533;19;20006;-23
2022/05/25 06:53:25;;;;;;;4.45;3.97;;;18.40;99.90;;;;;;4593688;19;20014;-23
2022/05/25 06:54:56;;;;;;;4.18;3.70;;;18.40;99.90;;;;;;4593516;19;20006;-24
2022/05/25 06:56:28;;;;;;;3.80;3.25;;;18.30;99.90;;;;;;4592044;19;20027;-25
2022/05/25 06:57:59;;;;;;;4.15;3.70;;;18.30;99.90;;;;;;4592087;19;20023;-24
2022/05/25 06:59:30;;;;;;;4.57;3.75;;;18.30;99.90;;;;;;4593325;19;19998;-24
2022/05/25 07:01:02;;;;;;;4.00;3.60;;;18.30;99.90;;;;;;4593805;19;20365;-24
2022/05/25 07:02:33;;;;;;;4.43;3.70;;;18.30;99.90;;;;;;4595119;19;20021;-22
2022/05/25 07:04:05;;;;;;;4.25;3.53;;;18.30;99.90;;;;;;4595475;19;20027;-24
2022/05/25 07:05:36;;;;;;;5.00;3.63;;;18.20;99.90;;;;;;4593437;19;20499;-24
2022/05/25 07:07:07;;;;;;;4.03;3.28;;;18.30;99.90;;;;;;4593911;19;20017;-24
2022/05/25 07:08:38;;;;;;;6.00;3.88;;;18.30;99.90;;;;;;4594586;19;20014;-24
2022/05/25 07:10:09;;;;;;;4.05;3.60;;;18.30;99.90;;;;;;4595025;19;20039;-24
2022/05/25 07:11:42;;;;;;;3.80;3.40;;;18.40;99.90;;;;;;4592862;19;20015;-24
2022/05/25 07:13:17;;;;;;;4.65;3.33;;;18.50;99.90;;;;;;4592327;19;20035;-24
2022/05/25 07:14:47;;;;;;;3.92;3.53;;;18.60;99.90;;;;;;4593712;19;20010;-24
2022/05/25 07:16:20;;;;;;;5.32;3.90;;;18.70;99.90;;;;;;4594205;19;20727;-24
2022/05/25 07:17:51;;;;;;;3.65;3.22;;;18.80;99.90;;;;;;4592192;19;20022;-24
2022/05/25 07:19:22;;;;;;;3.40;2.78;;;18.90;99.90;;;;;;4594973;19;20084;-24
2022/05/25 07:20:53;;;;;;;4.35;3.20;;;18.90;99.90;;;;;;4593259;19;20018;-24
2022/05/25 07:22:24;;;;;;;3.45;3.10;;;19.10;99.90;;;;;;4595017;19;20492;-24
2022/05/25 07:23:56;;;;;;;3.08;2.78;;;19.10;99.90;;;;;;4594935;19;20010;-24
2022/05/25 07:25:27;;;;;;;3.55;2.97;;;19.00;99.90;;;;;;4593983;19;20031;-24
2022/05/25 07:26:58;;;;;;;3.25;2.95;;;19.00;99.90;;;;;;4595191;19;20006;-24
2022/05/25 07:28:29;;;;;;;5.40;3.28;;;19.00;99.90;;;;;;4592991;19;20077;-24
2022/05/25 07:30:01;;;;;;;4.70;3.30;;;18.90;99.90;;;;;;4594531;19;20013;-24
2022/05/25 07:31:46;;;;;;;3.45;2.83;;;18.90;99.90;;;;;;4593865;19;20634;-24
2022/05/25 07:33:17;;;;;;;3.60;2.90;;;18.90;99.90;;;;;;4592972;19;20010;-23
2022/05/25 07:34:50;;;;;;;;;;;18.80;99.90;;;;;;4593008;19;20023;-22
2022/05/25 07:36:22;;;;;;;3.67;3.00;;;18.80;99.90;;;;;;4592910;19;19910;-21
2022/05/25 07:37:53;;;;;;;3.88;3.17;;;18.80;99.90;;;;;;4593427;19;20029;-21
2022/05/25 07:39:27;;;;;;;4.88;3.60;;;18.70;99.90;;;;;;4595055;19;20006;-21
2022/05/25 07:40:59;;;;;;;3.95;3.00;;;18.60;99.90;;;;;;4592675;19;20017;-21
2022/05/25 07:42:30;;;;;;;3.92;3.28;;;18.70;99.90;;;;;;4591522;19;20010;-22
2022/05/25 07:44:01;;;;;;;4.82;3.70;;;18.60;99.90;;;;;;4591776;19;20019;-22
2022/05/25 07:45:32;;;;;;;4.00;3.60;;;18.70;99.90;;;;;;4592564;19;20359;-22
2022/05/25 07:47:03;;;;;;;5.07;3.80;;;18.70;99.90;;;;;;4592105;19;20013;-22
2022/05/25 07:48:36;;;;;;;3.80;3.28;;;18.70;99.90;;;;;;4592644;19;20113;-21
2022/05/25 07:50:07;;;;;;;3.90;3.38;;;18.60;99.90;;;;;;4593964;19;20006;-21
2022/05/25 07:51:38;;;;;;;4.47;3.55;;;18.70;99.90;;;;;;4592479;19;20034;-22
2022/05/25 07:55:02;;;;;;;5.13;3.70;;;18.70;99.90;;;;;;4593006;19;20046;-22
2022/05/25 07:56:36;;;;;;;4.40;3.90;;;18.70;99.90;;;;;;4591212;19;20088;-22
2022/05/25 07:58:07;;;;;;;4.90;3.70;;;18.60;99.90;;;;;;4593434;19;20450;-22
2022/05/25 07:59:39;;;;;;;3.53;3.05;;;18.60;99.90;;;;;;4591799;19;20031;-22
2022/05/25 08:01:11;;;;;;;4.85;3.42;;;18.60;99.90;;;;;;4592276;19;20014;-23
2022/05/25 08:06:25;;;;;;;5.07;3.65;;;18.70;99.90;;;;;;4593429;19;20010;-22
2022/05/25 08:07:56;;;;;;;;;;;18.80;99.90;;;;;;4592970;19;20010;-22
2022/05/25 08:09:27;;;;;;;5.50;3.20;;;18.90;99.90;;;;;;4592683;19;19943;-20
2022/05/25 08:11:09;;;;;;;4.38;3.30;;;19.00;99.90;;;;;;4591684;19;20082;-22
2022/05/25 08:12:40;;;;;;;7.63;3.38;;;19.00;99.90;;;;;;4591601;19;20003;-23
2022/05/25 08:14:11;;;;;;;3.95;3.47;;;19.10;99.90;;;;;;4593934;19;20035;-23
2022/05/25 08:15:43;;;;;;;4.60;3.55;;;19.20;99.90;;;;;;4592610;19;20014;-21
2022/05/25 08:17:14;;;;;;;;;;;19.10;99.90;;;;;;4593204;19;20006;-24
2022/05/25 08:18:45;;;;;;;4.80;3.43;;;19.00;99.90;;;;;;4589800;19;19918;-23
2022/05/25 08:20:17;;;;;;;4.18;3.20;;;19.20;99.90;;;;;;4593120;19;20461;-22